sensor_id;sensor_type;location;lat;lon;timestamp;P1;durP1;ratioP1;P2;durP2;ratioP2
24681;SDS011;12802;53.390;-2.328;2024-01-07T00:00:15;38.97;;;21.63;;
24681;SDS011;12802;53.390;-2.328;2024-01-07T00:02:42;41.13;;;23.92;;
24681;SDS011;12802;53.390;-2.328;2024-01-07T00:05:08;36.67;;;21.90;;
24681;SDS011;12802;53.390;-2.328;2024-01-07T00:07:34;35.10;;;21.67;;
24681;SDS011;12802;53.390;-2.328;2024-01-07T00:10:00;38.20;;;21.65;;
24681;SDS011;12802;53.390;-2.328;2024-01-07T00:12:26;36.88;;;23.15;;
24681;SDS011;12802;53.390;-2.328;2024-01-07T00:14:52;42.15;;;24.08;;
24681;SDS011;12802;53.390;-2.328;2024-01-07T00:17:18;40.30;;;22.92;;
24681;SDS011;12802;53.390;-2.328;2024-01-07T00:19:45;42.97;;;23.92;;
24681;SDS011;12802;53.390;-2.328;2024-01-07T00:22:11;44.33;;;25.98;;
24681;SDS011;12802;53.390;-2.328;2024-01-07T00:24:37;44.03;;;25.20;;
24681;SDS011;12802;53.390;-2.328;2024-01-07T00:27:04;40.60;;;23.25;;
24681;SDS011;12802;53.390;-2.328;2024-01-07T00:29:30;38.85;;;22.08;;
24681;SDS011;12802;53.390;-2.328;2024-01-07T00:31:56;39.95;;;23.88;;
24681;SDS011;12802;53.390;-2.328;2024-01-07T00:34:23;39.35;;;22.63;;
24681;SDS011;12802;53.390;-2.328;2024-01-07T00:36:49;38.30;;;21.80;;
24681;SDS011;12802;53.390;-2.328;2024-01-07T00:39:15;45.70;;;23.70;;
24681;SDS011;12802;53.390;-2.328;2024-01-07T00:41:41;43.60;;;22.70;;
24681;SDS011;12802;53.390;-2.328;2024-01-07T00:44:07;36.53;;;22.20;;
24681;SDS011;12802;53.390;-2.328;2024-01-07T00:46:33;40.65;;;24.35;;
24681;SDS011;12802;53.390;-2.328;2024-01-07T00:48:59;35.53;;;22.80;;
24681;SDS011;12802;53.390;-2.328;2024-01-07T00:51:25;39.67;;;23.23;;
24681;SDS011;12802;53.390;-2.328;2024-01-07T00:53:52;42.92;;;25.02;;
24681;SDS011;12802;53.390;-2.328;2024-01-07T00:56:18;38.97;;;23.02;;
24681;SDS011;12802;53.390;-2.328;2024-01-07T00:58:44;37.53;;;23.45;;
24681;SDS011;12802;53.390;-2.328;2024-01-07T01:01:10;34.25;;;20.58;;
24681;SDS011;12802;53.390;-2.328;2024-01-07T01:03:36;33.65;;;20.52;;
24681;SDS011;12802;53.390;-2.328;2024-01-07T01:06:03;36.40;;;21.25;;
24681;SDS011;12802;53.390;-2.328;2024-01-07T01:08:29;34.42;;;19.25;;
24681;SDS011;12802;53.390;-2.328;2024-01-07T01:10:56;39.13;;;19.80;;
24681;SDS011;12802;53.390;-2.328;2024-01-07T01:13:22;34.55;;;19.17;;
24681;SDS011;12802;53.390;-2.328;2024-01-07T01:15:48;33.50;;;19.35;;
24681;SDS011;12802;53.390;-2.328;2024-01-07T01:18:14;32.78;;;19.85;;
24681;SDS011;12802;53.390;-2.328;2024-01-07T01:20:40;31.05;;;17.55;;
24681;SDS011;12802;53.390;-2.328;2024-01-07T01:23:06;31.38;;;19.38;;
24681;SDS011;12802;53.390;-2.328;2024-01-07T01:25:32;39.60;;;18.85;;
24681;SDS011;12802;53.390;-2.328;2024-01-07T01:28:00;37.13;;;17.75;;
24681;SDS011;12802;53.390;-2.328;2024-01-07T01:30:26;31.77;;;17.50;;
24681;SDS011;12802;53.390;-2.328;2024-01-07T01:32:55;29.65;;;17.52;;
24681;SDS011;12802;53.390;-2.328;2024-01-07T01:35:22;27.73;;;16.33;;
24681;SDS011;12802;53.390;-2.328;2024-01-07T01:37:48;26.92;;;16.70;;
24681;SDS011;12802;53.390;-2.328;2024-01-07T01:40:16;30.52;;;16.90;;
24681;SDS011;12802;53.390;-2.328;2024-01-07T01:42:43;27.17;;;17.60;;
24681;SDS011;12802;53.390;-2.328;2024-01-07T01:45:09;33.83;;;18.05;;
24681;SDS011;12802;53.390;-2.328;2024-01-07T01:47:35;27.40;;;17.40;;
24681;SDS011;12802;53.390;-2.328;2024-01-07T01:50:01;29.45;;;18.02;;
24681;SDS011;12802;53.390;-2.328;2024-01-07T01:52:27;28.60;;;17.15;;
24681;SDS011;12802;53.390;-2.328;2024-01-07T01:54:54;27.77;;;15.88;;
24681;SDS011;12802;53.390;-2.328;2024-01-07T01:57:21;27.25;;;16.13;;
24681;SDS011;12802;53.390;-2.328;2024-01-07T01:59:48;29.23;;;16.77;;
24681;SDS011;12802;53.390;-2.328;2024-01-07T02:02:14;30.30;;;17.88;;
24681;SDS011;12802;53.390;-2.328;2024-01-07T02:04:40;29.50;;;18.20;;
24681;SDS011;12802;53.390;-2.328;2024-01-07T02:07:06;27.88;;;16.63;;
24681;SDS011;12802;53.390;-2.328;2024-01-07T02:09:33;33.45;;;16.75;;
24681;SDS011;12802;53.390;-2.328;2024-01-07T02:12:03;28.75;;;16.55;;
24681;SDS011;12802;53.390;-2.328;2024-01-07T02:14:30;31.30;;;16.17;;
24681;SDS011;12802;53.390;-2.328;2024-01-07T02:16:56;29.70;;;16.13;;
24681;SDS011;12802;53.390;-2.328;2024-01-07T02:19:22;36.38;;;17.48;;
24681;SDS011;12802;53.390;-2.328;2024-01-07T02:21:52;26.02;;;15.60;;
24681;SDS011;12802;53.390;-2.328;2024-01-07T02:24:19;28.88;;;16.50;;
24681;SDS011;12802;53.390;-2.328;2024-01-07T02:26:45;28.55;;;15.50;;
24681;SDS011;12802;53.390;-2.328;2024-01-07T02:29:11;29.45;;;16.45;;
24681;SDS011;12802;53.390;-2.328;2024-01-07T02:31:37;26.23;;;14.32;;
24681;SDS011;12802;53.390;-2.328;2024-01-07T02:34:03;30.15;;;15.70;;
24681;SDS011;12802;53.390;-2.328;2024-01-07T02:36:30;29.05;;;15.98;;
24681;SDS011;12802;53.390;-2.328;2024-01-07T02:38:56;26.92;;;15.43;;
24681;SDS011;12802;53.390;-2.328;2024-01-07T02:41:22;23.98;;;13.88;;
24681;SDS011;12802;53.390;-2.328;2024-01-07T02:43:50;28.38;;;15.35;;
24681;SDS011;12802;53.390;-2.328;2024-01-07T02:46:17;27.15;;;15.52;;
24681;SDS011;12802;53.390;-2.328;2024-01-07T02:48:43;31.85;;;16.73;;
24681;SDS011;12802;53.390;-2.328;2024-01-07T02:51:09;24.05;;;14.10;;
24681;SDS011;12802;53.390;-2.328;2024-01-07T02:53:35;30.33;;;15.55;;
24681;SDS011;12802;53.390;-2.328;2024-01-07T02:56:01;30.90;;;15.43;;
24681;SDS011;12802;53.390;-2.328;2024-01-07T02:58:27;29.23;;;15.48;;
24681;SDS011;12802;53.390;-2.328;2024-01-07T03:00:54;32.75;;;17.00;;
24681;SDS011;12802;53.390;-2.328;2024-01-07T03:03:20;31.73;;;16.33;;
24681;SDS011;12802;53.390;-2.328;2024-01-07T03:05:46;24.65;;;14.88;;
24681;SDS011;12802;53.390;-2.328;2024-01-07T03:08:12;29.20;;;16.17;;
24681;SDS011;12802;53.390;-2.328;2024-01-07T03:10:38;29.67;;;15.38;;
24681;SDS011;12802;53.390;-2.328;2024-01-07T03:13:05;33.00;;;15.98;;
24681;SDS011;12802;53.390;-2.328;2024-01-07T03:15:31;22.70;;;13.70;;
24681;SDS011;12802;53.390;-2.328;2024-01-07T03:17:57;25.33;;;14.13;;
24681;SDS011;12802;53.390;-2.328;2024-01-07T03:20:23;29.73;;;14.85;;
24681;SDS011;12802;53.390;-2.328;2024-01-07T03:22:49;30.45;;;15.25;;
24681;SDS011;12802;53.390;-2.328;2024-01-07T03:25:15;27.33;;;15.60;;
24681;SDS011;12802;53.390;-2.328;2024-01-07T03:27:42;31.85;;;16.42;;
24681;SDS011;12802;53.390;-2.328;2024-01-07T03:30:08;29.67;;;15.00;;
24681;SDS011;12802;53.390;-2.328;2024-01-07T03:32:34;26.77;;;14.45;;
24681;SDS011;12802;53.390;-2.328;2024-01-07T03:35:01;28.55;;;14.50;;
24681;SDS011;12802;53.390;-2.328;2024-01-07T03:37:28;30.25;;;14.85;;
24681;SDS011;12802;53.390;-2.328;2024-01-07T03:39:54;27.10;;;14.02;;
24681;SDS011;12802;53.390;-2.328;2024-01-07T03:42:20;25.17;;;14.77;;
24681;SDS011;12802;53.390;-2.328;2024-01-07T03:44:46;30.30;;;14.75;;
24681;SDS011;12802;53.390;-2.328;2024-01-07T03:47:12;32.78;;;15.13;;
24681;SDS011;12802;53.390;-2.328;2024-01-07T03:49:38;30.88;;;15.98;;
24681;SDS011;12802;53.390;-2.328;2024-01-07T03:52:07;32.80;;;15.95;;
24681;SDS011;12802;53.390;-2.328;2024-01-07T03:54:34;28.88;;;16.52;;
24681;SDS011;12802;53.390;-2.328;2024-01-07T03:57:00;28.10;;;15.00;;
24681;SDS011;12802;53.390;-2.328;2024-01-07T03:59:26;31.30;;;15.60;;
24681;SDS011;12802;53.390;-2.328;2024-01-07T04:01:54;35.45;;;17.65;;
24681;SDS011;12802;53.390;-2.328;2024-01-07T04:04:20;35.03;;;15.52;;
24681;SDS011;12802;53.390;-2.328;2024-01-07T04:06:46;27.60;;;14.75;;
24681;SDS011;12802;53.390;-2.328;2024-01-07T04:09:12;29.02;;;14.93;;
24681;SDS011;12802;53.390;-2.328;2024-01-07T04:11:39;27.23;;;13.75;;
24681;SDS011;12802;53.390;-2.328;2024-01-07T04:14:05;26.67;;;13.75;;
24681;SDS011;12802;53.390;-2.328;2024-01-07T04:16:32;29.08;;;14.98;;
24681;SDS011;12802;53.390;-2.328;2024-01-07T04:18:58;23.90;;;14.63;;
24681;SDS011;12802;53.390;-2.328;2024-01-07T04:21:24;24.20;;;15.00;;
24681;SDS011;12802;53.390;-2.328;2024-01-07T04:23:50;25.65;;;13.07;;
24681;SDS011;12802;53.390;-2.328;2024-01-07T04:26:16;28.88;;;14.77;;
24681;SDS011;12802;53.390;-2.328;2024-01-07T04:28:42;28.05;;;13.63;;
24681;SDS011;12802;53.390;-2.328;2024-01-07T04:31:09;31.70;;;14.80;;
24681;SDS011;12802;53.390;-2.328;2024-01-07T04:33:35;27.02;;;14.73;;
24681;SDS011;12802;53.390;-2.328;2024-01-07T04:36:01;28.40;;;15.60;;
24681;SDS011;12802;53.390;-2.328;2024-01-07T04:38:29;23.33;;;13.48;;
24681;SDS011;12802;53.390;-2.328;2024-01-07T04:40:55;23.65;;;13.30;;
24681;SDS011;12802;53.390;-2.328;2024-01-07T04:43:21;21.80;;;12.25;;
24681;SDS011;12802;53.390;-2.328;2024-01-07T04:45:47;23.77;;;13.15;;
24681;SDS011;12802;53.390;-2.328;2024-01-07T04:48:13;23.42;;;13.35;;
24681;SDS011;12802;53.390;-2.328;2024-01-07T04:50:40;24.75;;;14.02;;
24681;SDS011;12802;53.390;-2.328;2024-01-07T04:53:09;24.50;;;13.05;;
24681;SDS011;12802;53.390;-2.328;2024-01-07T04:55:35;27.75;;;13.75;;
24681;SDS011;12802;53.390;-2.328;2024-01-07T04:58:02;27.15;;;12.57;;
24681;SDS011;12802;53.390;-2.328;2024-01-07T05:00:29;24.42;;;13.27;;
24681;SDS011;12802;53.390;-2.328;2024-01-07T05:02:56;26.80;;;12.30;;
24681;SDS011;12802;53.390;-2.328;2024-01-07T05:05:22;19.73;;;12.15;;
24681;SDS011;12802;53.390;-2.328;2024-01-07T05:07:48;24.95;;;12.05;;
24681;SDS011;12802;53.390;-2.328;2024-01-07T05:10:14;25.10;;;12.35;;
24681;SDS011;12802;53.390;-2.328;2024-01-07T05:12:40;20.38;;;12.48;;
24681;SDS011;12802;53.390;-2.328;2024-01-07T05:15:07;22.40;;;11.88;;
24681;SDS011;12802;53.390;-2.328;2024-01-07T05:17:34;24.30;;;12.30;;
24681;SDS011;12802;53.390;-2.328;2024-01-07T05:20:00;29.30;;;13.15;;
24681;SDS011;12802;53.390;-2.328;2024-01-07T05:22:26;21.30;;;11.82;;
24681;SDS011;12802;53.390;-2.328;2024-01-07T05:24:52;17.83;;;11.27;;
24681;SDS011;12802;53.390;-2.328;2024-01-07T05:27:18;22.27;;;12.07;;
24681;SDS011;12802;53.390;-2.328;2024-01-07T05:29:45;27.40;;;12.02;;
24681;SDS011;12802;53.390;-2.328;2024-01-07T05:32:12;24.95;;;12.40;;
24681;SDS011;12802;53.390;-2.328;2024-01-07T05:34:38;23.63;;;12.07;;
24681;SDS011;12802;53.390;-2.328;2024-01-07T05:37:04;21.48;;;12.85;;
24681;SDS011;12802;53.390;-2.328;2024-01-07T05:39:30;18.75;;;11.57;;
24681;SDS011;12802;53.390;-2.328;2024-01-07T05:41:56;27.95;;;12.65;;
24681;SDS011;12802;53.390;-2.328;2024-01-07T05:44:22;23.60;;;12.32;;
24681;SDS011;12802;53.390;-2.328;2024-01-07T05:46:48;21.30;;;12.20;;
24681;SDS011;12802;53.390;-2.328;2024-01-07T05:49:15;23.33;;;12.02;;
24681;SDS011;12802;53.390;-2.328;2024-01-07T05:51:41;19.40;;;11.30;;
24681;SDS011;12802;53.390;-2.328;2024-01-07T05:54:07;18.95;;;11.18;;
24681;SDS011;12802;53.390;-2.328;2024-01-07T05:56:39;24.55;;;12.57;;
24681;SDS011;12802;53.390;-2.328;2024-01-07T05:59:06;21.83;;;12.02;;
24681;SDS011;12802;53.390;-2.328;2024-01-07T06:01:32;23.13;;;11.43;;
24681;SDS011;12802;53.390;-2.328;2024-01-07T06:03:58;21.40;;;11.38;;
24681;SDS011;12802;53.390;-2.328;2024-01-07T06:06:24;23.00;;;12.32;;
24681;SDS011;12802;53.390;-2.328;2024-01-07T06:08:51;20.58;;;11.38;;
24681;SDS011;12802;53.390;-2.328;2024-01-07T06:11:17;22.92;;;12.32;;
24681;SDS011;12802;53.390;-2.328;2024-01-07T06:13:45;23.50;;;12.32;;
24681;SDS011;12802;53.390;-2.328;2024-01-07T06:16:11;20.83;;;12.23;;
24681;SDS011;12802;53.390;-2.328;2024-01-07T06:18:38;22.67;;;11.98;;
24681;SDS011;12802;53.390;-2.328;2024-01-07T06:21:04;23.27;;;12.15;;
24681;SDS011;12802;53.390;-2.328;2024-01-07T06:23:33;25.45;;;12.45;;
24681;SDS011;12802;53.390;-2.328;2024-01-07T06:26:02;28.48;;;13.60;;
24681;SDS011;12802;53.390;-2.328;2024-01-07T06:28:29;22.35;;;12.93;;
24681;SDS011;12802;53.390;-2.328;2024-01-07T06:30:55;28.90;;;13.48;;
24681;SDS011;12802;53.390;-2.328;2024-01-07T06:33:21;23.30;;;12.40;;
24681;SDS011;12802;53.390;-2.328;2024-01-07T06:35:47;22.73;;;13.30;;
24681;SDS011;12802;53.390;-2.328;2024-01-07T06:38:13;22.85;;;12.15;;
24681;SDS011;12802;53.390;-2.328;2024-01-07T06:40:40;24.77;;;11.85;;
24681;SDS011;12802;53.390;-2.328;2024-01-07T06:43:06;23.48;;;13.38;;
24681;SDS011;12802;53.390;-2.328;2024-01-07T06:45:32;21.08;;;12.07;;
24681;SDS011;12802;53.390;-2.328;2024-01-07T06:47:58;22.08;;;12.73;;
24681;SDS011;12802;53.390;-2.328;2024-01-07T06:50:26;20.00;;;12.60;;
24681;SDS011;12802;53.390;-2.328;2024-01-07T06:52:52;24.95;;;12.95;;
24681;SDS011;12802;53.390;-2.328;2024-01-07T06:55:18;23.55;;;12.98;;
24681;SDS011;12802;53.390;-2.328;2024-01-07T06:57:44;24.60;;;12.77;;
24681;SDS011;12802;53.390;-2.328;2024-01-07T07:00:10;24.02;;;12.10;;
24681;SDS011;12802;53.390;-2.328;2024-01-07T07:02:37;28.65;;;13.23;;
24681;SDS011;12802;53.390;-2.328;2024-01-07T07:05:03;17.33;;;10.77;;
24681;SDS011;12802;53.390;-2.328;2024-01-07T07:07:29;23.15;;;11.95;;
24681;SDS011;12802;53.390;-2.328;2024-01-07T07:09:55;21.85;;;12.25;;
24681;SDS011;12802;53.390;-2.328;2024-01-07T07:12:21;21.75;;;11.50;;
24681;SDS011;12802;53.390;-2.328;2024-01-07T07:14:48;20.23;;;11.15;;
24681;SDS011;12802;53.390;-2.328;2024-01-07T07:17:14;18.90;;;11.18;;
24681;SDS011;12802;53.390;-2.328;2024-01-07T07:19:41;21.95;;;11.80;;
24681;SDS011;12802;53.390;-2.328;2024-01-07T07:22:07;20.77;;;11.13;;
24681;SDS011;12802;53.390;-2.328;2024-01-07T07:24:33;21.77;;;11.18;;
24681;SDS011;12802;53.390;-2.328;2024-01-07T07:26:59;23.45;;;12.25;;
24681;SDS011;12802;53.390;-2.328;2024-01-07T07:29:25;22.35;;;11.43;;
24681;SDS011;12802;53.390;-2.328;2024-01-07T07:31:51;21.48;;;12.02;;
24681;SDS011;12802;53.390;-2.328;2024-01-07T07:34:17;19.05;;;10.82;;
24681;SDS011;12802;53.390;-2.328;2024-01-07T07:36:44;23.10;;;11.93;;
24681;SDS011;12802;53.390;-2.328;2024-01-07T07:39:10;24.42;;;13.35;;
24681;SDS011;12802;53.390;-2.328;2024-01-07T07:41:38;23.02;;;12.15;;
24681;SDS011;12802;53.390;-2.328;2024-01-07T07:44:06;22.33;;;12.50;;
24681;SDS011;12802;53.390;-2.328;2024-01-07T07:46:32;23.70;;;11.85;;
24681;SDS011;12802;53.390;-2.328;2024-01-07T07:48:58;23.48;;;12.25;;
24681;SDS011;12802;53.390;-2.328;2024-01-07T07:51:26;22.17;;;11.85;;
24681;SDS011;12802;53.390;-2.328;2024-01-07T07:53:53;19.48;;;11.45;;
24681;SDS011;12802;53.390;-2.328;2024-01-07T07:56:19;22.33;;;12.05;;
24681;SDS011;12802;53.390;-2.328;2024-01-07T07:58:45;20.60;;;11.68;;
24681;SDS011;12802;53.390;-2.328;2024-01-07T08:01:11;17.92;;;11.63;;
24681;SDS011;12802;53.390;-2.328;2024-01-07T08:03:38;27.38;;;12.05;;
24681;SDS011;12802;53.390;-2.328;2024-01-07T08:06:04;20.65;;;12.98;;
24681;SDS011;12802;53.390;-2.328;2024-01-07T08:08:30;32.63;;;18.23;;
24681;SDS011;12802;53.390;-2.328;2024-01-07T08:10:57;35.20;;;21.45;;
24681;SDS011;12802;53.390;-2.328;2024-01-07T08:13:23;36.92;;;22.65;;
24681;SDS011;12802;53.390;-2.328;2024-01-07T08:15:49;39.90;;;20.33;;
24681;SDS011;12802;53.390;-2.328;2024-01-07T08:18:15;26.15;;;15.70;;
24681;SDS011;12802;53.390;-2.328;2024-01-07T08:20:42;18.25;;;7.72;;
24681;SDS011;12802;53.390;-2.328;2024-01-07T08:23:08;16.60;;;9.05;;
24681;SDS011;12802;53.390;-2.328;2024-01-07T08:25:35;15.10;;;7.88;;
24681;SDS011;12802;53.390;-2.328;2024-01-07T08:28:01;19.63;;;8.85;;
24681;SDS011;12802;53.390;-2.328;2024-01-07T08:30:27;15.02;;;7.65;;
24681;SDS011;12802;53.390;-2.328;2024-01-07T08:32:54;16.30;;;8.43;;
24681;SDS011;12802;53.390;-2.328;2024-01-07T08:35:20;19.85;;;7.53;;
24681;SDS011;12802;53.390;-2.328;2024-01-07T08:37:47;16.30;;;7.38;;
24681;SDS011;12802;53.390;-2.328;2024-01-07T08:40:13;19.05;;;8.00;;
24681;SDS011;12802;53.390;-2.328;2024-01-07T08:42:39;15.15;;;7.60;;
24681;SDS011;12802;53.390;-2.328;2024-01-07T08:45:06;14.95;;;6.90;;
24681;SDS011;12802;53.390;-2.328;2024-01-07T08:47:32;12.80;;;6.30;;
24681;SDS011;12802;53.390;-2.328;2024-01-07T08:49:59;17.33;;;6.72;;
24681;SDS011;12802;53.390;-2.328;2024-01-07T08:52:25;16.45;;;8.35;;
24681;SDS011;12802;53.390;-2.328;2024-01-07T08:54:52;22.17;;;8.65;;
24681;SDS011;12802;53.390;-2.328;2024-01-07T08:57:18;17.58;;;8.32;;
24681;SDS011;12802;53.390;-2.328;2024-01-07T08:59:44;14.32;;;6.85;;
24681;SDS011;12802;53.390;-2.328;2024-01-07T09:02:10;15.45;;;6.68;;
24681;SDS011;12802;53.390;-2.328;2024-01-07T09:04:36;12.20;;;7.05;;
24681;SDS011;12802;53.390;-2.328;2024-01-07T09:07:03;10.32;;;6.45;;
24681;SDS011;12802;53.390;-2.328;2024-01-07T09:09:29;12.60;;;7.03;;
24681;SDS011;12802;53.390;-2.328;2024-01-07T09:11:55;17.88;;;8.75;;
24681;SDS011;12802;53.390;-2.328;2024-01-07T09:14:23;15.02;;;7.55;;
24681;SDS011;12802;53.390;-2.328;2024-01-07T09:16:50;11.88;;;6.50;;
24681;SDS011;12802;53.390;-2.328;2024-01-07T09:19:16;16.00;;;7.18;;
24681;SDS011;12802;53.390;-2.328;2024-01-07T09:21:42;14.90;;;8.02;;
24681;SDS011;12802;53.390;-2.328;2024-01-07T09:24:09;16.20;;;8.32;;
24681;SDS011;12802;53.390;-2.328;2024-01-07T09:26:35;18.70;;;8.63;;
24681;SDS011;12802;53.390;-2.328;2024-01-07T09:29:01;15.57;;;8.25;;
24681;SDS011;12802;53.390;-2.328;2024-01-07T09:31:28;15.73;;;6.95;;
24681;SDS011;12802;53.390;-2.328;2024-01-07T09:33:54;16.52;;;8.20;;
24681;SDS011;12802;53.390;-2.328;2024-01-07T09:36:20;14.85;;;7.72;;
24681;SDS011;12802;53.390;-2.328;2024-01-07T09:38:46;14.63;;;7.00;;
24681;SDS011;12802;53.390;-2.328;2024-01-07T09:41:13;20.52;;;8.13;;
24681;SDS011;12802;53.390;-2.328;2024-01-07T09:43:39;19.15;;;8.07;;
24681;SDS011;12802;53.390;-2.328;2024-01-07T09:46:05;14.95;;;7.82;;
24681;SDS011;12802;53.390;-2.328;2024-01-07T09:48:31;16.40;;;7.80;;
24681;SDS011;12802;53.390;-2.328;2024-01-07T09:51:00;19.17;;;8.43;;
24681;SDS011;12802;53.390;-2.328;2024-01-07T09:53:28;16.55;;;7.70;;
24681;SDS011;12802;53.390;-2.328;2024-01-07T09:58:33;14.07;;;7.00;;
24681;SDS011;12802;53.390;-2.328;2024-01-07T10:00:59;19.75;;;8.13;;
24681;SDS011;12802;53.390;-2.328;2024-01-07T10:03:25;16.13;;;7.15;;
24681;SDS011;12802;53.390;-2.328;2024-01-07T10:05:51;16.02;;;7.97;;
24681;SDS011;12802;53.390;-2.328;2024-01-07T10:08:18;16.90;;;7.40;;
24681;SDS011;12802;53.390;-2.328;2024-01-07T10:10:45;17.58;;;7.53;;
24681;SDS011;12802;53.390;-2.328;2024-01-07T10:13:11;13.90;;;7.50;;
24681;SDS011;12802;53.390;-2.328;2024-01-07T10:15:37;15.75;;;7.22;;
24681;SDS011;12802;53.390;-2.328;2024-01-07T10:18:04;16.08;;;7.10;;
24681;SDS011;12802;53.390;-2.328;2024-01-07T10:20:31;13.45;;;7.03;;
24681;SDS011;12802;53.390;-2.328;2024-01-07T10:22:58;15.68;;;7.10;;
24681;SDS011;12802;53.390;-2.328;2024-01-07T10:25:24;12.88;;;6.90;;
24681;SDS011;12802;53.390;-2.328;2024-01-07T10:27:51;14.02;;;7.68;;
24681;SDS011;12802;53.390;-2.328;2024-01-07T10:30:17;18.25;;;8.48;;
24681;SDS011;12802;53.390;-2.328;2024-01-07T10:32:43;14.82;;;7.43;;
24681;SDS011;12802;53.390;-2.328;2024-01-07T10:35:11;16.73;;;7.75;;
24681;SDS011;12802;53.390;-2.328;2024-01-07T10:37:39;13.98;;;7.28;;
24681;SDS011;12802;53.390;-2.328;2024-01-07T10:40:06;14.50;;;6.32;;
24681;SDS011;12802;53.390;-2.328;2024-01-07T10:42:33;15.60;;;6.95;;
24681;SDS011;12802;53.390;-2.328;2024-01-07T10:45:00;16.73;;;7.50;;
24681;SDS011;12802;53.390;-2.328;2024-01-07T10:47:29;11.75;;;6.60;;
24681;SDS011;12802;53.390;-2.328;2024-01-07T10:49:59;15.75;;;6.63;;
24681;SDS011;12802;53.390;-2.328;2024-01-07T10:52:27;12.10;;;6.20;;
24681;SDS011;12802;53.390;-2.328;2024-01-07T10:54:56;18.35;;;8.05;;
24681;SDS011;12802;53.390;-2.328;2024-01-07T10:57:33;20.48;;;7.13;;
24681;SDS011;12802;53.390;-2.328;2024-01-07T11:00:01;12.90;;;7.15;;
24681;SDS011;12802;53.390;-2.328;2024-01-07T11:02:32;18.58;;;9.23;;
24681;SDS011;12802;53.390;-2.328;2024-01-07T11:07:29;14.05;;;7.05;;
24681;SDS011;12802;53.390;-2.328;2024-01-07T11:10:02;14.23;;;6.78;;
24681;SDS011;12802;53.390;-2.328;2024-01-07T11:12:30;11.18;;;7.47;;
24681;SDS011;12802;53.390;-2.328;2024-01-07T11:14:57;14.85;;;8.23;;
24681;SDS011;12802;53.390;-2.328;2024-01-07T11:17:40;13.18;;;7.28;;
24681;SDS011;12802;53.390;-2.328;2024-01-07T11:20:12;13.35;;;7.00;;
24681;SDS011;12802;53.390;-2.328;2024-01-07T11:22:39;22.73;;;7.70;;
24681;SDS011;12802;53.390;-2.328;2024-01-07T11:25:29;11.88;;;6.78;;
24681;SDS011;12802;53.390;-2.328;2024-01-07T11:27:51;14.38;;;7.32;;
24681;SDS011;12802;53.390;-2.328;2024-01-07T11:30:20;16.15;;;7.40;;
24681;SDS011;12802;53.390;-2.328;2024-01-07T11:32:47;15.32;;;7.28;;
24681;SDS011;12802;53.390;-2.328;2024-01-07T11:35:13;14.48;;;6.75;;
24681;SDS011;12802;53.390;-2.328;2024-01-07T11:37:41;11.90;;;6.28;;
24681;SDS011;12802;53.390;-2.328;2024-01-07T11:40:07;12.75;;;6.32;;
24681;SDS011;12802;53.390;-2.328;2024-01-07T11:42:34;12.82;;;6.05;;
24681;SDS011;12802;53.390;-2.328;2024-01-07T11:45:00;10.20;;;5.60;;
24681;SDS011;12802;53.390;-2.328;2024-01-07T11:47:26;11.95;;;5.97;;
24681;SDS011;12802;53.390;-2.328;2024-01-07T11:49:53;10.55;;;6.22;;
24681;SDS011;12802;53.390;-2.328;2024-01-07T11:52:19;10.88;;;6.43;;
24681;SDS011;12802;53.390;-2.328;2024-01-07T11:54:46;12.70;;;6.53;;
24681;SDS011;12802;53.390;-2.328;2024-01-07T11:57:13;12.13;;;6.80;;
24681;SDS011;12802;53.390;-2.328;2024-01-07T11:59:39;12.38;;;6.80;;
24681;SDS011;12802;53.390;-2.328;2024-01-07T12:02:06;10.75;;;5.63;;
24681;SDS011;12802;53.390;-2.328;2024-01-07T12:04:33;9.32;;;5.68;;
24681;SDS011;12802;53.390;-2.328;2024-01-07T12:07:00;10.25;;;5.72;;
24681;SDS011;12802;53.390;-2.328;2024-01-07T12:09:26;15.10;;;6.70;;
24681;SDS011;12802;53.390;-2.328;2024-01-07T12:11:53;12.40;;;6.07;;
24681;SDS011;12802;53.390;-2.328;2024-01-07T12:14:19;7.85;;;4.50;;
24681;SDS011;12802;53.390;-2.328;2024-01-07T12:16:46;8.00;;;4.00;;
24681;SDS011;12802;53.390;-2.328;2024-01-07T12:19:12;5.95;;;3.42;;
24681;SDS011;12802;53.390;-2.328;2024-01-07T12:21:39;11.80;;;4.20;;
24681;SDS011;12802;53.390;-2.328;2024-01-07T12:24:05;6.22;;;4.32;;
24681;SDS011;12802;53.390;-2.328;2024-01-07T12:26:31;8.55;;;3.78;;
24681;SDS011;12802;53.390;-2.328;2024-01-07T12:29:02;9.40;;;4.35;;
24681;SDS011;12802;53.390;-2.328;2024-01-07T12:31:29;10.75;;;5.07;;
24681;SDS011;12802;53.390;-2.328;2024-01-07T12:33:56;10.75;;;4.18;;
24681;SDS011;12802;53.390;-2.328;2024-01-07T12:36:22;10.02;;;3.85;;
24681;SDS011;12802;53.390;-2.328;2024-01-07T12:38:49;8.45;;;3.80;;
24681;SDS011;12802;53.390;-2.328;2024-01-07T12:41:16;6.93;;;3.70;;
24681;SDS011;12802;53.390;-2.328;2024-01-07T12:43:43;10.02;;;4.22;;
24681;SDS011;12802;53.390;-2.328;2024-01-07T12:46:09;24.02;;;11.48;;
24681;SDS011;12802;53.390;-2.328;2024-01-07T12:48:35;13.40;;;6.07;;
24681;SDS011;12802;53.390;-2.328;2024-01-07T12:51:01;8.88;;;4.30;;
24681;SDS011;12802;53.390;-2.328;2024-01-07T12:53:27;7.97;;;3.80;;
24681;SDS011;12802;53.390;-2.328;2024-01-07T12:55:54;7.50;;;3.65;;
24681;SDS011;12802;53.390;-2.328;2024-01-07T12:58:20;7.00;;;3.53;;
24681;SDS011;12802;53.390;-2.328;2024-01-07T13:00:46;6.97;;;3.25;;
24681;SDS011;12802;53.390;-2.328;2024-01-07T13:03:13;4.65;;;3.05;;
24681;SDS011;12802;53.390;-2.328;2024-01-07T13:05:43;18.20;;;3.47;;
24681;SDS011;12802;53.390;-2.328;2024-01-07T13:08:11;7.15;;;3.33;;
24681;SDS011;12802;53.390;-2.328;2024-01-07T13:10:37;8.85;;;2.97;;
24681;SDS011;12802;53.390;-2.328;2024-01-07T13:13:03;11.75;;;3.38;;
24681;SDS011;12802;53.390;-2.328;2024-01-07T13:15:30;7.07;;;3.35;;
24681;SDS011;12802;53.390;-2.328;2024-01-07T13:17:56;5.03;;;2.70;;
24681;SDS011;12802;53.390;-2.328;2024-01-07T13:20:23;6.22;;;2.15;;
24681;SDS011;12802;53.390;-2.328;2024-01-07T13:22:49;3.22;;;1.35;;
24681;SDS011;12802;53.390;-2.328;2024-01-07T13:25:15;7.40;;;2.78;;
24681;SDS011;12802;53.390;-2.328;2024-01-07T13:27:41;9.48;;;3.10;;
24681;SDS011;12802;53.390;-2.328;2024-01-07T13:30:07;7.30;;;3.22;;
24681;SDS011;12802;53.390;-2.328;2024-01-07T13:32:34;9.57;;;2.65;;
24681;SDS011;12802;53.390;-2.328;2024-01-07T13:35:02;10.07;;;4.22;;
24681;SDS011;12802;53.390;-2.328;2024-01-07T13:37:28;7.93;;;3.60;;
24681;SDS011;12802;53.390;-2.328;2024-01-07T13:39:55;4.95;;;2.92;;
24681;SDS011;12802;53.390;-2.328;2024-01-07T13:42:22;5.45;;;1.67;;
24681;SDS011;12802;53.390;-2.328;2024-01-07T13:44:48;4.35;;;1.60;;
24681;SDS011;12802;53.390;-2.328;2024-01-07T13:47:14;1.98;;;1.42;;
24681;SDS011;12802;53.390;-2.328;2024-01-07T13:49:41;4.63;;;1.65;;
24681;SDS011;12802;53.390;-2.328;2024-01-07T13:52:08;5.40;;;1.40;;
24681;SDS011;12802;53.390;-2.328;2024-01-07T13:54:35;8.85;;;1.85;;
24681;SDS011;12802;53.390;-2.328;2024-01-07T13:57:02;2.53;;;1.10;;
24681;SDS011;12802;53.390;-2.328;2024-01-07T13:59:28;2.28;;;1.30;;
24681;SDS011;12802;53.390;-2.328;2024-01-07T14:01:55;5.88;;;1.23;;
24681;SDS011;12802;53.390;-2.328;2024-01-07T14:04:23;4.47;;;1.27;;
24681;SDS011;12802;53.390;-2.328;2024-01-07T14:06:55;2.95;;;1.38;;
24681;SDS011;12802;53.390;-2.328;2024-01-07T14:09:22;1.95;;;1.23;;
24681;SDS011;12802;53.390;-2.328;2024-01-07T14:11:48;3.17;;;1.30;;
24681;SDS011;12802;53.390;-2.328;2024-01-07T14:14:14;3.92;;;1.55;;
24681;SDS011;12802;53.390;-2.328;2024-01-07T14:16:40;4.32;;;1.55;;